sensor_id;sensor_type;location;lat;lon;timestamp;pressure;altitude;pressure_sealevel;temperature;humidity
51067;BME280;37112;45.892;-123.962;2023-12-07T00:01:42;100624.58;;;10.28;100.00
51067;BME280;37112;45.892;-123.962;2023-12-07T00:04:17;100628.58;;;10.26;100.00
51067;BME280;37112;45.892;-123.962;2023-12-07T00:06:52;100630.27;;;10.25;100.00
51067;BME280;37112;45.892;-123.962;2023-12-07T00:09:26;100635.67;;;10.24;100.00
51067;BME280;37112;45.892;-123.962;2023-12-07T00:11:59;100635.25;;;10.22;100.00
51067;BME280;37112;45.892;-123.962;2023-12-07T00:14:35;100640.94;;;10.19;100.00
51067;BME280;37112;45.892;-123.962;2023-12-07T00:17:09;100635.79;;;10.16;100.00
51067;BME280;37112;45.892;-123.962;2023-12-07T00:19:43;100638.86;;;10.16;100.00
51067;BME280;37112;45.892;-123.962;2023-12-07T00:22:17;100641.25;;;10.14;100.00
51067;BME280;37112;45.892;-123.962;2023-12-07T00:24:51;100636.83;;;10.12;100.00
51067;BME280;37112;45.892;-123.962;2023-12-07T00:27:26;100642.30;;;10.09;100.00
51067;BME280;37112;45.892;-123.962;2023-12-07T00:30:00;100647.86;;;10.06;100.00
51067;BME280;37112;45.892;-123.962;2023-12-07T00:32:34;100648.77;;;10.02;100.00
51067;BME280;37112;45.892;-123.962;2023-12-07T00:35:10;100652.86;;;10.00;100.00
51067;BME280;37112;45.892;-123.962;2023-12-07T00:37:43;100652.29;;;9.98;100.00
51067;BME280;37112;45.892;-123.962;2023-12-07T00:40:16;100654.61;;;9.98;100.00
51067;BME280;37112;45.892;-123.962;2023-12-07T00:42:50;100652.86;;;9.97;100.00
51067;BME280;37112;45.892;-123.962;2023-12-07T00:45:24;100659.49;;;9.96;100.00
51067;BME280;37112;45.892;-123.962;2023-12-07T00:47:57;100661.05;;;9.94;100.00
51067;BME280;37112;45.892;-123.962;2023-12-07T00:50:31;100661.40;;;9.94;100.00
51067;BME280;37112;45.892;-123.962;2023-12-07T00:53:06;100661.61;;;9.96;100.00
51067;BME280;37112;45.892;-123.962;2023-12-07T00:55:40;100659.38;;;9.98;100.00
51067;BME280;37112;45.892;-123.962;2023-12-07T00:58:14;100660.16;;;9.99;100.00
51067;BME280;37112;45.892;-123.962;2023-12-07T01:00:48;100658.07;;;9.99;100.00
51067;BME280;37112;45.892;-123.962;2023-12-07T01:03:23;100655.20;;;9.97;100.00
51067;BME280;37112;45.892;-123.962;2023-12-07T01:05:57;100651.88;;;9.93;100.00
51067;BME280;37112;45.892;-123.962;2023-12-07T01:08:31;100656.33;;;9.91;100.00
51067;BME280;37112;45.892;-123.962;2023-12-07T01:11:05;100653.12;;;9.88;100.00
51067;BME280;37112;45.892;-123.962;2023-12-07T01:13:38;100649.71;;;9.86;100.00
51067;BME280;37112;45.892;-123.962;2023-12-07T01:16:12;100652.49;;;9.86;100.00
51067;BME280;37112;45.892;-123.962;2023-12-07T01:18:47;100651.24;;;9.86;100.00
51067;BME280;37112;45.892;-123.962;2023-12-07T01:21:21;100655.84;;;9.87;100.00
51067;BME280;37112;45.892;-123.962;2023-12-07T01:23:56;100655.44;;;9.88;100.00
51067;BME280;37112;45.892;-123.962;2023-12-07T03:05:52;100631.04;;;9.78;100.00
51067;BME280;37112;45.892;-123.962;2023-12-07T03:08:23;100628.66;;;9.77;100.00
51067;BME280;37112;45.892;-123.962;2023-12-07T03:10:53;100630.70;;;9.75;100.00
51067;BME280;37112;45.892;-123.962;2023-12-07T03:13:24;100626.32;;;9.75;100.00
51067;BME280;37112;45.892;-123.962;2023-12-07T03:15:54;100621.74;;;9.74;100.00
51067;BME280;37112;45.892;-123.962;2023-12-07T03:18:26;100624.15;;;9.72;100.00
51067;BME280;37112;45.892;-123.962;2023-12-07T03:20:56;100621.52;;;9.72;100.00
51067;BME280;37112;45.892;-123.962;2023-12-07T03:23:27;100624.73;;;9.71;100.00
51067;BME280;37112;45.892;-123.962;2023-12-07T03:25:57;100620.97;;;9.72;100.00
51067;BME280;37112;45.892;-123.962;2023-12-07T03:28:27;100615.91;;;9.74;100.00
51067;BME280;37112;45.892;-123.962;2023-12-07T03:30:58;100622.13;;;9.74;100.00
51067;BME280;37112;45.892;-123.962;2023-12-07T03:33:28;100620.97;;;9.77;100.00
51067;BME280;37112;45.892;-123.962;2023-12-07T03:35:58;100625.60;;;9.81;100.00
51067;BME280;37112;45.892;-123.962;2023-12-07T03:38:18;100627.83;;;9.82;100.00
51067;BME280;37112;45.892;-123.962;2023-12-07T03:40:48;100628.55;;;9.82;100.00
51067;BME280;37112;45.892;-123.962;2023-12-07T03:43:21;100630.23;;;9.80;100.00
51067;BME280;37112;45.892;-123.962;2023-12-07T03:45:51;100631.27;;;9.77;100.00
51067;BME280;37112;45.892;-123.962;2023-12-07T03:48:22;100628.13;;;9.74;100.00
51067;BME280;37112;45.892;-123.962;2023-12-07T03:50:52;100629.69;;;9.72;100.00
51067;BME280;37112;45.892;-123.962;2023-12-07T03:53:22;100629.35;;;9.69;100.00
51067;BME280;37112;45.892;-123.962;2023-12-07T03:55:52;100628.23;;;9.67;100.00
51067;BME280;37112;45.892;-123.962;2023-12-07T03:58:23;100627.71;;;9.69;100.00
51067;BME280;37112;45.892;-123.962;2023-12-07T04:00:53;100624.92;;;9.71;100.00
51067;BME280;37112;45.892;-123.962;2023-12-07T04:03:24;100626.56;;;9.71;100.00
51067;BME280;37112;45.892;-123.962;2023-12-07T04:05:54;100626.56;;;9.68;100.00
51067;BME280;37112;45.892;-123.962;2023-12-07T04:08:24;100629.05;;;9.66;100.00
51067;BME280;37112;45.892;-123.962;2023-12-07T04:10:55;100624.52;;;9.64;100.00
51067;BME280;37112;45.892;-123.962;2023-12-07T04:13:25;100629.83;;;9.64;100.00
51067;BME280;37112;45.892;-123.962;2023-12-07T04:15:56;100632.92;;;9.63;100.00
51067;BME280;37112;45.892;-123.962;2023-12-07T04:18:26;100635.48;;;9.62;100.00
51067;BME280;37112;45.892;-123.962;2023-12-07T04:20:57;100638.46;;;9.60;100.00
51067;BME280;37112;45.892;-123.962;2023-12-07T04:23:27;100633.52;;;9.60;100.00
51067;BME280;37112;45.892;-123.962;2023-12-07T04:25:58;100637.91;;;9.58;100.00
51067;BME280;37112;45.892;-123.962;2023-12-07T04:28:28;100652.04;;;9.55;100.00
51067;BME280;37112;45.892;-123.962;2023-12-07T04:30:59;100658.59;;;9.53;100.00
51067;BME280;37112;45.892;-123.962;2023-12-07T04:33:29;100656.85;;;9.50;100.00
51067;BME280;37112;45.892;-123.962;2023-12-07T04:35:49;100660.27;;;9.48;100.00
51067;BME280;37112;45.892;-123.962;2023-12-07T04:38:20;100664.65;;;9.47;100.00
51067;BME280;37112;45.892;-123.962;2023-12-07T04:40:50;100658.67;;;9.43;100.00
51067;BME280;37112;45.892;-123.962;2023-12-07T04:43:21;100661.96;;;9.38;100.00
51067;BME280;37112;45.892;-123.962;2023-12-07T04:45:51;100663.33;;;9.34;100.00
51067;BME280;37112;45.892;-123.962;2023-12-07T04:48:22;100664.52;;;9.32;100.00
51067;BME280;37112;45.892;-123.962;2023-12-07T04:50:54;100662.65;;;9.34;100.00
51067;BME280;37112;45.892;-123.962;2023-12-07T04:53:24;100660.56;;;9.36;100.00
51067;BME280;37112;45.892;-123.962;2023-12-07T04:55:54;100658.93;;;9.39;100.00
51067;BME280;37112;45.892;-123.962;2023-12-07T04:58:24;100666.38;;;9.42;100.00
51067;BME280;37112;45.892;-123.962;2023-12-07T05:00:55;100668.33;;;9.42;100.00
51067;BME280;37112;45.892;-123.962;2023-12-07T05:03:25;100670.79;;;9.42;100.00
51067;BME280;37112;45.892;-123.962;2023-12-07T05:05:56;100672.00;;;9.43;100.00
51067;BME280;37112;45.892;-123.962;2023-12-07T05:08:26;100674.55;;;9.44;100.00
51067;BME280;37112;45.892;-123.962;2023-12-07T05:10:57;100676.80;;;9.45;100.00
51067;BME280;37112;45.892;-123.962;2023-12-07T05:13:28;100674.14;;;9.48;100.00
51067;BME280;37112;45.892;-123.962;2023-12-07T05:15:58;100679.66;;;9.51;100.00
51067;BME280;37112;45.892;-123.962;2023-12-07T05:18:29;100678.71;;;9.54;100.00
51067;BME280;37112;45.892;-123.962;2023-12-07T05:20:59;100674.29;;;9.54;100.00
51067;BME280;37112;45.892;-123.962;2023-12-07T05:23:29;100674.71;;;9.53;100.00
51067;BME280;37112;45.892;-123.962;2023-12-07T05:26:02;100672.23;;;9.50;100.00
51067;BME280;37112;45.892;-123.962;2023-12-07T05:28:32;100670.23;;;9.45;100.00
51067;BME280;37112;45.892;-123.962;2023-12-07T05:31:03;100665.39;;;9.43;100.00
51067;BME280;37112;45.892;-123.962;2023-12-07T05:33:33;100666.80;;;9.41;100.00
51067;BME280;37112;45.892;-123.962;2023-12-07T05:36:03;100670.98;;;9.39;100.00
51067;BME280;37112;45.892;-123.962;2023-12-07T05:38:34;100669.21;;;9.37;100.00
51067;BME280;37112;45.892;-123.962;2023-12-07T05:41:04;100671.09;;;9.35;100.00
51067;BME280;37112;45.892;-123.962;2023-12-07T05:43:35;100673.25;;;9.31;100.00
51067;BME280;37112;45.892;-123.962;2023-12-07T05:46:05;100667.84;;;9.28;100.00
51067;BME280;37112;45.892;-123.962;2023-12-07T05:48:36;100670.61;;;9.25;100.00
51067;BME280;37112;45.892;-123.962;2023-12-07T05:51:11;100673.08;;;9.26;100.00
51067;BME280;37112;45.892;-123.962;2023-12-07T05:53:41;100674.58;;;9.27;100.00
51067;BME280;37112;45.892;-123.962;2023-12-07T05:56:12;100675.31;;;9.30;100.00
51067;BME280;37112;45.892;-123.962;2023-12-07T05:58:48;100691.09;;;9.30;100.00
51067;BME280;37112;45.892;-123.962;2023-12-07T06:01:20;100684.95;;;9.29;100.00
51067;BME280;37112;45.892;-123.962;2023-12-07T06:03:50;100686.30;;;9.27;100.00
51067;BME280;37112;45.892;-123.962;2023-12-07T06:06:20;100686.34;;;9.26;100.00
51067;BME280;37112;45.892;-123.962;2023-12-07T06:08:50;100679.45;;;9.26;100.00
51067;BME280;37112;45.892;-123.962;2023-12-07T06:11:22;100673.77;;;9.26;100.00
51067;BME280;37112;45.892;-123.962;2023-12-07T06:13:53;100685.25;;;9.24;100.00
51067;BME280;37112;45.892;-123.962;2023-12-07T06:16:24;100680.55;;;9.22;100.00
51067;BME280;37112;45.892;-123.962;2023-12-07T06:18:55;100678.64;;;9.21;100.00
51067;BME280;37112;45.892;-123.962;2023-12-07T06:21:25;100678.48;;;9.24;100.00
51067;BME280;37112;45.892;-123.962;2023-12-07T06:23:58;100675.77;;;9.28;100.00
51067;BME280;37112;45.892;-123.962;2023-12-07T06:26:28;100674.31;;;9.34;100.00
51067;BME280;37112;45.892;-123.962;2023-12-07T06:28:59;100671.41;;;9.41;100.00
51067;BME280;37112;45.892;-123.962;2023-12-07T06:31:30;100669.52;;;9.43;100.00
51067;BME280;37112;45.892;-123.962;2023-12-07T06:34:00;100668.88;;;9.47;100.00
51067;BME280;37112;45.892;-123.962;2023-12-07T06:36:31;100664.89;;;9.54;100.00
51067;BME280;37112;45.892;-123.962;2023-12-07T06:39:01;100668.66;;;9.59;100.00
51067;BME280;37112;45.892;-123.962;2023-12-07T06:41:32;100669.54;;;9.65;100.00
51067;BME280;37112;45.892;-123.962;2023-12-07T06:44:04;100664.75;;;9.70;100.00
51067;BME280;37112;45.892;-123.962;2023-12-07T06:46:35;100661.03;;;9.73;100.00
51067;BME280;37112;45.892;-123.962;2023-12-07T06:49:06;100660.53;;;9.75;100.00
51067;BME280;37112;45.892;-123.962;2023-12-07T06:51:36;100663.83;;;9.76;100.00
51067;BME280;37112;45.892;-123.962;2023-12-07T06:54:07;100659.23;;;9.75;100.00
51067;BME280;37112;45.892;-123.962;2023-12-07T06:56:37;100664.73;;;9.78;100.00
51067;BME280;37112;45.892;-123.962;2023-12-07T06:59:08;100667.28;;;9.80;100.00
51067;BME280;37112;45.892;-123.962;2023-12-07T07:01:38;100664.72;;;9.82;100.00
51067;BME280;37112;45.892;-123.962;2023-12-07T07:04:09;100667.59;;;9.84;100.00
51067;BME280;37112;45.892;-123.962;2023-12-07T07:06:40;100670.71;;;9.85;100.00
51067;BME280;37112;45.892;-123.962;2023-12-07T07:09:10;100677.44;;;9.85;100.00
51067;BME280;37112;45.892;-123.962;2023-12-07T07:11:40;100665.73;;;9.85;100.00
51067;BME280;37112;45.892;-123.962;2023-12-07T07:14:11;100665.61;;;9.87;100.00
51067;BME280;37112;45.892;-123.962;2023-12-07T07:16:42;100669.23;;;9.88;100.00
51067;BME280;37112;45.892;-123.962;2023-12-07T07:19:13;100662.64;;;9.84;100.00
51067;BME280;37112;45.892;-123.962;2023-12-07T07:21:45;100662.34;;;9.71;100.00
51067;BME280;37112;45.892;-123.962;2023-12-07T07:24:16;100668.46;;;9.62;100.00
51067;BME280;37112;45.892;-123.962;2023-12-07T07:26:45;100672.79;;;9.58;100.00
51067;BME280;37112;45.892;-123.962;2023-12-07T07:29:16;100670.82;;;9.59;100.00
51067;BME280;37112;45.892;-123.962;2023-12-07T07:31:46;100664.30;;;9.60;100.00
51067;BME280;37112;45.892;-123.962;2023-12-07T07:34:16;100660.41;;;9.60;100.00
51067;BME280;37112;45.892;-123.962;2023-12-07T07:36:46;100660.75;;;9.60;100.00
51067;BME280;37112;45.892;-123.962;2023-12-07T07:39:18;100652.99;;;9.63;100.00
51067;BME280;37112;45.892;-123.962;2023-12-07T07:41:48;100648.98;;;9.64;100.00
51067;BME280;37112;45.892;-123.962;2023-12-07T07:44:19;100647.18;;;9.67;100.00
51067;BME280;37112;45.892;-123.962;2023-12-07T07:46:49;100651.02;;;9.71;100.00
51067;BME280;37112;45.892;-123.962;2023-12-07T07:49:19;100659.88;;;9.71;100.00
51067;BME280;37112;45.892;-123.962;2023-12-07T07:51:49;100663.73;;;9.61;100.00
51067;BME280;37112;45.892;-123.962;2023-12-07T07:54:20;100667.14;;;9.52;100.00
51067;BME280;37112;45.892;-123.962;2023-12-07T07:56:51;100676.61;;;9.48;100.00
51067;BME280;37112;45.892;-123.962;2023-12-07T07:59:21;100677.66;;;9.48;100.00
51067;BME280;37112;45.892;-123.962;2023-12-07T08:01:51;100680.73;;;9.47;100.00
51067;BME280;37112;45.892;-123.962;2023-12-07T08:04:22;100676.59;;;9.48;100.00
51067;BME280;37112;45.892;-123.962;2023-12-07T08:06:52;100676.77;;;9.52;100.00
51067;BME280;37112;45.892;-123.962;2023-12-07T08:09:22;100675.86;;;9.54;100.00
51067;BME280;37112;45.892;-123.962;2023-12-07T08:11:52;100676.80;;;9.59;100.00
51067;BME280;37112;45.892;-123.962;2023-12-07T08:14:23;100676.90;;;9.68;100.00
51067;BME280;37112;45.892;-123.962;2023-12-07T08:16:53;100676.70;;;9.77;100.00
51067;BME280;37112;45.892;-123.962;2023-12-07T08:19:24;100685.09;;;9.82;100.00
51067;BME280;37112;45.892;-123.962;2023-12-07T08:21:54;100690.45;;;9.84;100.00
51067;BME280;37112;45.892;-123.962;2023-12-07T08:24:25;100690.67;;;9.86;100.00
51067;BME280;37112;45.892;-123.962;2023-12-07T08:26:55;100699.73;;;9.89;100.00
51067;BME280;37112;45.892;-123.962;2023-12-07T08:29:26;100701.33;;;9.88;100.00
51067;BME280;37112;45.892;-123.962;2023-12-07T08:31:56;100698.02;;;9.87;100.00
51067;BME280;37112;45.892;-123.962;2023-12-07T08:34:26;100696.45;;;9.87;100.00
51067;BME280;37112;45.892;-123.962;2023-12-07T08:36:57;100699.62;;;9.87;100.00
51067;BME280;37112;45.892;-123.962;2023-12-07T08:39:27;100692.77;;;9.86;100.00
51067;BME280;37112;45.892;-123.962;2023-12-07T08:41:57;100687.86;;;9.88;100.00
51067;BME280;37112;45.892;-123.962;2023-12-07T08:44:29;100692.19;;;9.93;100.00
51067;BME280;37112;45.892;-123.962;2023-12-07T08:46:59;100693.10;;;9.95;100.00
51067;BME280;37112;45.892;-123.962;2023-12-07T08:49:30;100702.65;;;9.93;100.00
51067;BME280;37112;45.892;-123.962;2023-12-07T08:52:00;100707.77;;;9.93;100.00
51067;BME280;37112;45.892;-123.962;2023-12-07T08:54:51;100711.83;;;9.93;100.00
51067;BME280;37112;45.892;-123.962;2023-12-07T08:57:22;100714.06;;;9.91;100.00
51067;BME280;37112;45.892;-123.962;2023-12-07T08:59:52;100710.91;;;9.91;100.00
51067;BME280;37112;45.892;-123.962;2023-12-07T09:02:24;100703.78;;;9.92;100.00
51067;BME280;37112;45.892;-123.962;2023-12-07T09:05:10;100705.36;;;9.94;100.00
51067;BME280;37112;45.892;-123.962;2023-12-07T09:07:40;100709.64;;;9.94;100.00
51067;BME280;37112;45.892;-123.962;2023-12-07T09:10:11;100707.27;;;9.95;100.00
51067;BME280;37112;45.892;-123.962;2023-12-07T09:12:41;100711.78;;;9.97;100.00
51067;BME280;37112;45.892;-123.962;2023-12-07T09:15:12;100718.25;;;9.95;100.00
51067;BME280;37112;45.892;-123.962;2023-12-07T09:17:43;100713.92;;;9.94;100.00
51067;BME280;37112;45.892;-123.962;2023-12-07T09:20:14;100723.16;;;9.93;100.00
51067;BME280;37112;45.892;-123.962;2023-12-07T09:22:44;100724.48;;;9.95;100.00
51067;BME280;37112;45.892;-123.962;2023-12-07T09:25:15;100728.29;;;9.97;100.00
51067;BME280;37112;45.892;-123.962;2023-12-07T09:27:46;100732.64;;;9.98;100.00
51067;BME280;37112;45.892;-123.962;2023-12-07T09:30:17;100727.34;;;9.98;100.00
51067;BME280;37112;45.892;-123.962;2023-12-07T09:32:47;100722.98;;;9.97;100.00
51067;BME280;37112;45.892;-123.962;2023-12-07T09:35:17;100727.59;;;9.99;100.00
51067;BME280;37112;45.892;-123.962;2023-12-07T09:37:51;100728.45;;;10.02;100.00
51067;BME280;37112;45.892;-123.962;2023-12-07T09:40:22;100729.20;;;10.04;100.00
51067;BME280;37112;45.892;-123.962;2023-12-07T09:42:54;100737.10;;;10.02;100.00
51067;BME280;37112;45.892;-123.962;2023-12-07T09:45:24;100734.60;;;10.00;100.00
51067;BME280;37112;45.892;-123.962;2023-12-07T09:47:56;100738.05;;;9.99;100.00
51067;BME280;37112;45.892;-123.962;2023-12-07T09:50:27;100739.74;;;10.00;100.00
51067;BME280;37112;45.892;-123.962;2023-12-07T09:52:59;100745.77;;;10.00;100.00
51067;BME280;37112;45.892;-123.962;2023-12-07T09:55:35;100743.90;;;9.99;100.00
51067;BME280;37112;45.892;-123.962;2023-12-07T09:58:07;100751.66;;;10.00;100.00
51067;BME280;37112;45.892;-123.962;2023-12-07T10:00:37;100753.84;;;9.94;98.00
51067;BME280;37112;45.892;-123.962;2023-12-07T10:03:08;100757.69;;;9.89;96.12
51067;BME280;37112;45.892;-123.962;2023-12-07T10:05:55;100764.64;;;9.86;94.72
51067;BME280;37112;45.892;-123.962;2023-12-07T10:08:30;100769.51;;;9.85;95.89
51067;BME280;37112;45.892;-123.962;2023-12-07T10:11:08;100772.31;;;9.85;95.72
51067;BME280;37112;45.892;-123.962;2023-12-07T10:13:38;100780.67;;;9.84;95.72
51067;BME280;37112;45.892;-123.962;2023-12-07T10:16:12;100778.70;;;9.83;93.99
51067;BME280;37112;45.892;-123.962;2023-12-07T10:18:43;100778.75;;;9.82;94.96
51067;BME280;37112;45.892;-123.962;2023-12-07T10:21:15;100785.40;;;9.83;94.64
51067;BME280;37112;45.892;-123.962;2023-12-07T10:23:45;100787.17;;;9.80;93.16
51067;BME280;37112;45.892;-123.962;2023-12-07T10:26:18;100796.36;;;9.77;93.71
51067;BME280;37112;45.892;-123.962;2023-12-07T10:28:50;100799.02;;;9.77;94.20
51067;BME280;37112;45.892;-123.962;2023-12-07T10:31:23;100798.16;;;9.80;95.54
51067;BME280;37112;45.892;-123.962;2023-12-07T10:33:54;100803.70;;;9.82;95.13
51067;BME280;37112;45.892;-123.962;2023-12-07T10:36:07;100803.08;;;9.81;95.14
51067;BME280;37112;45.892;-123.962;2023-12-07T10:38:17;100805.73;;;9.81;95.57
51067;BME280;37112;45.892;-123.962;2023-12-07T10:40:27;100805.59;;;9.81;96.00
51067;BME280;37112;45.892;-123.962;2023-12-07T10:42:38;100804.90;;;9.80;96.05
51067;BME280;37112;45.892;-123.962;2023-12-07T10:44:55;100800.83;;;9.80;96.51
51067;BME280;37112;45.892;-123.962;2023-12-07T10:47:08;100794.63;;;9.80;96.79
51067;BME280;37112;45.892;-123.962;2023-12-07T10:49:24;100791.05;;;9.80;97.03
51067;BME280;37112;45.892;-123.962;2023-12-07T10:51:45;100784.18;;;9.83;97.48
51067;BME280;37112;45.892;-123.962;2023-12-07T10:53:59;100782.02;;;9.83;97.40
51067;BME280;37112;45.892;-123.962;2023-12-07T10:56:13;100776.99;;;9.84;97.36
51067;BME280;37112;45.892;-123.962;2023-12-07T10:58:26;100777.23;;;9.86;96.98
51067;BME280;37112;45.892;-123.962;2023-12-07T11:00:37;100771.38;;;9.86;96.62
51067;BME280;37112;45.892;-123.962;2023-12-07T11:02:53;100788.36;;;9.89;97.84
51067;BME280;37112;45.892;-123.962;2023-12-07T11:05:04;100784.52;;;9.91;97.52
51067;BME280;37112;45.892;-123.962;2023-12-07T11:07:18;100779.30;;;9.87;97.63
51067;BME280;37112;45.892;-123.962;2023-12-07T11:09:42;100794.55;;;9.78;97.07
51067;BME280;37112;45.892;-123.962;2023-12-07T11:11:57;100796.52;;;9.72;99.87
51067;BME280;37112;45.892;-123.962;2023-12-07T11:14:09;100797.45;;;9.66;100.00
51067;BME280;37112;45.892;-123.962;2023-12-07T11:16:30;100788.77;;;9.57;100.00
51067;BME280;37112;45.892;-123.962;2023-12-07T11:18:40;100781.04;;;9.47;100.00
51067;BME280;37112;45.892;-123.962;2023-12-07T11:20:52;100784.19;;;9.43;100.00
51067;BME280;37112;45.892;-123.962;2023-12-07T11:23:06;100784.90;;;9.42;100.00
51067;BME280;37112;45.892;-123.962;2023-12-07T11:25:16;100789.02;;;9.45;100.00
51067;BME280;37112;45.892;-123.962;2023-12-07T11:27:28;100796.36;;;9.46;100.00
51067;BME280;37112;45.892;-123.962;2023-12-07T11:29:38;100789.55;;;9.45;100.00
51067;BME280;37112;45.892;-123.962;2023-12-07T11:31:50;100786.95;;;9.41;100.00
51067;BME280;37112;45.892;-123.962;2023-12-07T11:34:00;100778.54;;;9.37;100.00
51067;BME280;37112;45.892;-123.962;2023-12-07T11:36:15;100777.77;;;9.35;100.00
51067;BME280;37112;45.892;-123.962;2023-12-07T11:38:25;100781.89;;;9.34;100.00
51067;BME280;37112;45.892;-123.962;2023-12-07T11:40:37;100780.99;;;9.34;100.00
51067;BME280;37112;45.892;-123.962;2023-12-07T11:42:47;100785.50;;;9.38;100.00
51067;BME280;37112;45.892;-123.962;2023-12-07T11:44:57;100787.52;;;9.44;100.00
51067;BME280;37112;45.892;-123.962;2023-12-07T11:47:08;100784.59;;;9.47;100.00
51067;BME280;37112;45.892;-123.962;2023-12-07T11:49:19;100782.45;;;9.54;100.00
51067;BME280;37112;45.892;-123.962;2023-12-07T11:51:42;100786.53;;;9.59;100.00
51067;BME280;37112;45.892;-123.962;2023-12-07T11:53:51;100784.43;;;9.64;100.00
51067;BME280;37112;45.892;-123.962;2023-12-07T11:56:02;100787.05;;;9.65;100.00
51067;BME280;37112;45.892;-123.962;2023-12-07T11:58:15;100783.14;;;9.65;100.00
51067;BME280;37112;45.892;-123.962;2023-12-07T12:00:23;100790.11;;;9.67;99.56
51067;BME280;37112;45.892;-123.962;2023-12-07T12:02:33;100788.27;;;9.68;98.55
51067;BME280;37112;45.892;-123.962;2023-12-07T12:04:45;100795.20;;;9.70;99.13
51067;BME280;37112;45.892;-123.962;2023-12-07T12:06:55;100798.38;;;9.68;96.75
51067;BME280;37112;45.892;-123.962;2023-12-07T12:09:05;100797.69;;;9.65;95.26
51067;BME280;37112;45.892;-123.962;2023-12-07T12:11:19;100798.23;;;9.62;92.83
51067;BME280;37112;45.892;-123.962;2023-12-07T12:13:33;100796.42;;;9.62;93.06
51067;BME280;37112;45.892;-123.962;2023-12-07T12:15:44;100796.98;;;9.65;93.84
51067;BME280;37112;45.892;-123.962;2023-12-07T12:17:55;100790.68;;;9.66;93.58
51067;BME280;37112;45.892;-123.962;2023-12-07T12:20:07;100791.54;;;9.69;93.83
51067;BME280;37112;45.892;-123.962;2023-12-07T12:22:18;100802.36;;;9.72;93.40
51067;BME280;37112;45.892;-123.962;2023-12-07T12:24:29;100796.60;;;9.74;93.36
51067;BME280;37112;45.892;-123.962;2023-12-07T12:26:41;100801.16;;;9.75;94.47
51067;BME280;37112;45.892;-123.962;2023-12-07T12:28:49;100796.81;;;9.76;95.54
51067;BME280;37112;45.892;-123.962;2023-12-07T12:31:00;100797.65;;;9.74;95.90
51067;BME280;37112;45.892;-123.962;2023-12-07T12:33:11;100796.76;;;9.71;96.01
51067;BME280;37112;45.892;-123.962;2023-12-07T12:35:22;100792.45;;;9.69;96.23
51067;BME280;37112;45.892;-123.962;2023-12-07T12:37:34;100793.66;;;9.67;96.50
51067;BME280;37112;45.892;-123.962;2023-12-07T12:39:44;100788.42;;;9.66;96.76
51067;BME280;37112;45.892;-123.962;2023-12-07T12:41:57;100782.04;;;9.66;96.94
51067;BME280;37112;45.892;-123.962;2023-12-07T12:44:09;100781.44;;;9.67;97.61
51067;BME280;37112;45.892;-123.962;2023-12-07T12:46:31;100781.83;;;9.69;97.20
51067;BME280;37112;45.892;-123.962;2023-12-07T12:48:54;100781.14;;;9.69;96.75
51067;BME280;37112;45.892;-123.962;2023-12-07T12:51:14;100782.43;;;9.68;95.52
51067;BME280;37112;45.892;-123.962;2023-12-07T12:53:24;100780.06;;;9.69;96.30
51067;BME280;37112;45.892;-123.962;2023-12-07T12:55:34;100786.97;;;9.71;97.18
51067;BME280;37112;45.892;-123.962;2023-12-07T12:57:45;100792.91;;;9.73;97.75
51067;BME280;37112;45.892;-123.962;2023-12-07T12:59:59;100793.69;;;9.72;97.78
51067;BME280;37112;45.892;-123.962;2023-12-07T13:02:10;100786.49;;;9.68;97.93
51067;BME280;37112;45.892;-123.962;2023-12-07T13:04:20;100782.06;;;9.65;98.27
51067;BME280;37112;45.892;-123.962;2023-12-07T13:06:30;100784.91;;;9.62;98.50
51067;BME280;37112;45.892;-123.962;2023-12-07T13:08:43;100781.01;;;9.60;98.96
51067;BME280;37112;45.892;-123.962;2023-12-07T13:10:53;100777.09;;;9.57;99.25
51067;BME280;37112;45.892;-123.962;2023-12-07T13:13:03;100779.95;;;9.56;99.81
51067;BME280;37112;45.892;-123.962;2023-12-07T13:15:15;100778.09;;;9.55;100.00
51067;BME280;37112;45.892;-123.962;2023-12-07T13:17:25;100778.20;;;9.54;100.00
51067;BME280;37112;45.892;-123.962;2023-12-07T13:19:35;100780.33;;;9.54;100.00
51067;BME280;37112;45.892;-123.962;2023-12-07T13:21:46;100778.86;;;9.54;100.00
51067;BME280;37112;45.892;-123.962;2023-12-07T13:23:57;100774.71;;;9.55;100.00
51067;BME280;37112;45.892;-123.962;2023-12-07T13:26:09;100776.11;;;9.59;100.00
51067;BME280;37112;45.892;-123.962;2023-12-07T13:28:19;100768.20;;;9.60;100.00
51067;BME280;37112;45.892;-123.962;2023-12-07T13:30:30;100767.65;;;9.61;100.00
51067;BME280;37112;45.892;-123.962;2023-12-07T13:32:43;100774.63;;;9.62;100.00
51067;BME280;37112;45.892;-123.962;2023-12-07T13:34:53;100777.71;;;9.61;100.00
51067;BME280;37112;45.892;-123.962;2023-12-07T13:37:03;100782.59;;;9.60;100.00
51067;BME280;37112;45.892;-123.962;2023-12-07T13:39:13;100790.12;;;9.61;100.00
51067;BME280;37112;45.892;-123.962;2023-12-07T13:41:39;100789.76;;;9.61;100.00
51067;BME280;37112;45.892;-123.962;2023-12-07T13:43:49;100785.19;;;9.61;100.00
51067;BME280;37112;45.892;-123.962;2023-12-07T13:46:00;100790.29;;;9.59;100.00
51067;BME280;37112;45.892;-123.962;2023-12-07T13:48:10;100786.30;;;9.57;100.00
51067;BME280;37112;45.892;-123.962;2023-12-07T13:50:22;100792.34;;;9.57;100.00
51067;BME280;37112;45.892;-123.962;2023-12-07T13:52:32;100789.86;;;9.60;100.00
51067;BME280;37112;45.892;-123.962;2023-12-07T13:54:42;100790.04;;;9.62;100.00